ADDS METAR Data INFO
IDs: Format: Raw Decoded Include TAF

Data at: 1016 UTC 12 Dec 2017

KMOR 120955Z AUTO 28007KT 10SM FEW065 SCT075 OVC100 07/M00 A2981 RMK A01
KMOR 120935Z AUTO 27008KT 10SM BKN110 07/00 A2980 RMK A01
KMOR 120915Z AUTO 28008KT 10SM FEW050 BKN110 07/00 A2981 RMK A01
KMOR 120855Z AUTO 29008KT 10SM SCT050 08/01 A2981 RMK A01
KMOR 120835Z AUTO 28008G14KT 260V320 10SM FEW050 SCT110 08/01 A2981 RMK A01
KMOR 120815Z AUTO 27008G14KT 10SM BKN110 08/01 A2982 RMK A01
KMOR 120755Z AUTO 28012KT 10SM SCT110 08/00 A2981 RMK A01
KMOR 120735Z AUTO 27011KT 10SM FEW050 08/00 A2981 RMK A01
KMOR 120715Z AUTO 27009G14KT 10SM FEW055 08/M00 A2981 RMK A01
KMOR 120655Z AUTO 26008KT 10SM FEW048 08/M00 A2981 RMK A01
KMOR 120635Z AUTO 26008G14KT 10SM FEW048 08/M00 A2981 RMK A01
KMOR 120615Z AUTO 26008G14KT 10SM FEW049 FEW055 09/M00 A2981 RMK A01
KMOR 120555Z AUTO 26010G15KT 230V290 10SM FEW050 FEW055 FEW120 09/M00 A2982 RMK A01
KMOR 120535Z AUTO 27009G15KT 10SM FEW050 SCT055 09/M00 A2983 RMK A01
KMOR 120515Z AUTO 27012KT 10SM CLR 09/M01 A2983 RMK A01
KMOR 120455Z AUTO 26008KT 10SM FEW047 09/M01 A2984 RMK A01
KMOR 120435Z AUTO 26009KT 10SM FEW049 09/M01 A2985 RMK A01
KMOR 120415Z AUTO 26009KT 10SM FEW050 FEW055 09/M01 A2985 RMK A01
KMOR 120355Z AUTO 26011KT 10SM CLR 09/M01 A2986 RMK A01
KMOR 120335Z AUTO 27009KT 10SM CLR 09/M01 A2986 RMK A01
KMOR 120315Z AUTO 27009G16KT 10SM CLR 09/M01 A2986 RMK A01
KMOR 120255Z AUTO 27008KT 240V300 10SM CLR 09/M01 A2987 RMK A01
KMOR 120235Z AUTO 26007G12KT 10SM CLR 09/M01 A2986 RMK A01
KMOR 120215Z AUTO 24006KT 10SM CLR 07/M01 A2986 RMK A01
KMOR 120155Z AUTO 19004KT 10SM CLR 05/M01 A2987 RMK A01
KMOR 120135Z AUTO 25005G10KT 10SM CLR 08/M01 A2988 RMK A01
KMOR 120115Z AUTO 00000KT 10SM CLR 08/M02 A2988 RMK A01
KMOR 120055Z AUTO 24005KT 10SM CLR 08/M02 A2988 RMK A01
KMOR 120035Z AUTO 24005KT 10SM CLR 08/M02 A2988 RMK A01
KMOR 120015Z AUTO 22004KT 10SM CLR 07/M02 A2988 RMK A01
KMOR 112355Z AUTO 18004KT 10SM CLR 08/M02 A2989 RMK A01
KMOR 112335Z AUTO 19003KT 10SM CLR 07/M01 A2989 RMK A01
KMOR 112315Z AUTO 00000KT 10SM CLR 10/M02 A2990 RMK A01
KMOR 112255Z AUTO 28004KT 10SM CLR 10/M02 A2990 RMK A01
KMOR 112235Z AUTO 28005KT 10SM CLR 10/M02 A2991 RMK A01
KMOR 112215Z AUTO 24005KT 10SM CLR 11/M02 A2991 RMK A01
KMOR 112155Z AUTO 24006KT 10SM CLR 11/M02 A2991 RMK A01
KMOR 112135Z AUTO 25008KT 10SM CLR 12/M02 A2992 RMK A01
KMOR 112115Z AUTO 23005G10KT 10SM CLR 12/M02 A2993 RMK A01
KMOR 112055Z AUTO 24009KT 10SM CLR 12/M02 A2994 RMK A01
KMOR 112035Z AUTO 25008G13KT 10SM CLR 12/M02 A2996 RMK A01
KMOR 112015Z AUTO 24012KT 10SM CLR 12/M03 A2996 RMK A01
KMOR 111955Z AUTO 25011KT 10SM CLR 12/M02 A2997 RMK A01
KMOR 111935Z AUTO 25007KT 200V280 10SM CLR 12/M02 A2998 RMK A01
KMOR 111915Z AUTO 23008KT 10SM CLR 11/M02 A3000 RMK A01
KMOR 111855Z AUTO 23008KT 10SM CLR 11/M02 A3000 RMK A01
KMOR 111835Z AUTO 30008KT 10SM CLR 11/M02 A3002 RMK A01
KMOR 111815Z AUTO VRB05KT 10SM CLR 10/M02 A3003 RMK A01
KMOR 111755Z AUTO 28009KT 10SM CLR 10/M02 A3004 RMK A01
KMOR 111735Z AUTO 25008KT 10SM CLR 09/M02 A3005 RMK A01
KMOR 111715Z AUTO VRB07KT 270V330 10SM CLR 08/M02 A3007 RMK A01
KMOR 111655Z AUTO 27008KT 10SM CLR 08/M03 A3008 RMK A01
KMOR 111635Z AUTO 28007G14KT 10SM CLR 07/M03 A3010 RMK A01
KMOR 111615Z AUTO 26007G12KT 230V300 10SM CLR 07/M03 A3010 RMK A01
KMOR 111555Z AUTO 26007KT 220V300 10SM CLR 07/M03 A3010 RMK A01
KMOR 111535Z AUTO 25008KT 10SM CLR 06/M03 A3011 RMK A01
KMOR 111515Z AUTO 24007KT 10SM CLR 05/M03 A3012 RMK A01
KMOR 111455Z AUTO 22005KT 10SM CLR 05/M03 A3012 RMK A01
KMOR 111435Z AUTO VRB03KT 10SM CLR 04/M03 A3013 RMK A01
KMOR 111415Z AUTO 00000KT 10SM CLR 03/M03 A3013 RMK A01
KMOR 111355Z AUTO 00000KT 10SM CLR 01/M04 A3013 RMK A01
KMOR 111335Z AUTO 00000KT 10SM CLR M01/M04 A3013 RMK A01
KMOR 111315Z AUTO 00000KT 10SM CLR M02/M05 A3013 RMK A01
KMOR 111255Z AUTO 00000KT 10SM CLR M03/M05 A3014 RMK A01
KMOR 111235Z AUTO 00000KT 10SM CLR M02/M05 A3013 RMK A01
KMOR 111215Z AUTO 24004KT 10SM CLR M00/M05 A3013 RMK A01
KMOR 111155Z AUTO 24004KT 10SM CLR 00/M05 A3013 RMK A01
KMOR 111135Z AUTO 28004KT 10SM CLR 01/M05 A3013 RMK A01
KMOR 111115Z AUTO 27007KT 10SM CLR 00/M05 A3012 RMK A01
KMOR 111055Z AUTO 25004KT 10SM CLR 00/M05 A3012 RMK A01
KMOR 111035Z AUTO 27004KT 10SM CLR 00/M05 A3013 RMK A01
KMOR 111015Z AUTO 24004KT 10SM CLR M00/M05 A3013 RMK A01
KMOR 110955Z AUTO 23003KT 10SM CLR M00/M05 A3014 RMK A01
KMOR 110935Z AUTO 00000KT 10SM CLR M00/M05 A3015 RMK A01
KMOR 110915Z AUTO 00000KT 10SM CLR M00/M05 A3015 RMK A01
KMOR 110855Z AUTO 00000KT 10SM FEW042 01/M05 A3014 RMK A01
KMOR 110835Z AUTO 00000KT 10SM SCT040 02/M05 A3015 RMK A01
KMOR 110815Z AUTO 27006KT 10SM FEW040 02/M05 A3015 RMK A01
KMOR 110755Z AUTO 27006KT 10SM FEW041 02/M06 A3015 RMK A01
KMOR 110735Z AUTO 27006KT 10SM SCT042 02/M06 A3015 RMK A01
KMOR 110715Z AUTO 27007KT 10SM CLR 02/M06 A3015 RMK A01
KMOR 110655Z AUTO 27008KT 10SM FEW041 02/M06 A3015 RMK A01
KMOR 110635Z AUTO 27006KT 10SM FEW041 02/M06 A3016 RMK A01
KMOR 110615Z AUTO 27007KT 10SM CLR 02/M06 A3016 RMK A01
KMOR 110555Z AUTO 26006G11KT 10SM CLR 02/M06 A3017 RMK A01
KMOR 110535Z AUTO 25005KT 10SM CLR 02/M06 A3017 RMK A01
KMOR 110515Z AUTO 25007KT 10SM CLR 02/M06 A3017 RMK A01
KMOR 110455Z AUTO 26006KT 10SM CLR 02/M06 A3017 RMK A01
KMOR 110435Z AUTO 27008G14KT 10SM CLR 02/M06 A3017 RMK A01
KMOR 110415Z AUTO 27011KT 10SM CLR 02/M06 A3017 RMK A01
KMOR 110355Z AUTO 28009G14KT 10SM CLR 02/M06 A3017 RMK A01
KMOR 110335Z AUTO 27012KT 10SM CLR 02/M06 A3016 RMK A01
KMOR 110315Z AUTO 27011KT 10SM CLR 03/M06 A3016 RMK A01
KMOR 110255Z AUTO 27011KT 10SM CLR 03/M06 A3015 RMK A01
KMOR 110235Z AUTO 28008G15KT 10SM CLR 03/M07 A3015 RMK A01
KMOR 110215Z AUTO 27010KT 10SM CLR 03/M07 A3014 RMK A01
KMOR 110155Z AUTO 27009KT 10SM CLR 02/M07 A3014 RMK A01
KMOR 110135Z AUTO 26005KT 10SM CLR 02/M07 A3013 RMK A01
KMOR 110115Z AUTO 26005KT 10SM CLR 02/M07 A3013 RMK A01
KMOR 110055Z AUTO 24005KT 10SM FEW045 FEW120 02/M07 A3013 RMK A01
KMOR 110035Z AUTO 22004KT 10SM CLR 01/M07 A3012 RMK A01
KMOR 110015Z AUTO 25007KT 10SM CLR 02/M07 A3012 RMK A01
KMOR 102355Z AUTO 23004KT 10SM CLR 02/M07 A3011 RMK A01
KMOR 102335Z AUTO 00000KT 10SM CLR 02/M07 A3011 RMK A01
KMOR 102315Z AUTO 24005KT 10SM CLR 02/M07 A3011 RMK A01
KMOR 102255Z AUTO 22005KT 10SM CLR 02/M07 A3011 RMK A01
KMOR 102235Z AUTO 23007KT 10SM CLR 02/M07 A3012 RMK A01